Saint Charles, IL

11:05 PM CST on December 09, 2016 (GMT -0600)
Du Page | | Change Station
Active Advisory: Winter Storm Watch

Elev 758 ft 41.90 °N, 88.25 °W | Updated 13 minutes ago

Clear
Clear
16 °F
Feels Like 5 °F
N
8
Wind Variable Wind from West

Today
High -- | Low -- °F
--% Chance of Precip.
Yesterday
High -- | Low -- °F
Precip. -- in
Pressure 30.54 in
Visibility 10.0 miles
Clouds Clear
Windchill 5 °F
Dew Point 10 °F
Humidity 77%
Rainfall 0.00 in
Snow Depth Not available.
7:09 AM 4:21 PM
Waxing Gibbous, 80% visible
METAR KDPA 100452Z 26007KT 10SM CLR M09/M12 A3050 RMK AO2 SLP341 T10891122
Pressure 30.54 in
Visibility 10.0 miles
Clouds Clear
Windchill 5 °F
Dew Point 10 °F
Humidity 77%
Rainfall 0.00 in
Snow Depth Not available.
7:09 AM 4:21 PM
Waxing Gibbous, 80% visible
METAR KDPA 100452Z 26007KT 10SM CLR M09/M12 A3050 RMK AO2 SLP341 T10891122

10-Day Weather Forecast

Almanac

Astronomy

Dec. 09, 2016 Rise Set
Actual Time
Civil Twilight
Nautical Twilight
Astronomical Twilight
Moon
Length of Visible Light
Length of Day
Tomorrow will be .
, % of the Moon is Illuminated

Today's Extremes

State Highs State Lows

Community

WunderPhotos

Upload Photos

1,956,529 photos uploaded!

WunderBlog® & News

Nearby

Air Quality

  Air Quality AQ Index Pollutant
Not available.

Snow Depth

Station Depth Elevation

Earthquake Activity

City Distance Mag. Time & Date
Minimum magnitude displayed is 2.5.

Coastal Water Temperatures

Place Temperature

Stations

Nearby Weather Stations

Station Location Temp. Windchill Dew Point Humidity Wind Precip. Elev Updated Type
                   

Watches & Warnings

Winter Storm Watch
Issued: 9:21 PM CST Dec. 9, 2016 – National Weather Service

... Winter Storm Watch remains in effect from Saturday evening
through late Sunday night...

* timing... snow will develop over the area by early Saturday
evening and continue through Sunday evening.

* Snow accumulations... in excess of 6 inches possible.

* Main impact... the potential of snow covered roads and low
visibilities may make travel hazardous.

Precautionary/preparedness actions...

A Winter Storm Watch means there is a potential for significant
snow... sleet... or ice accumulations that may impact travel.
Continue to monitor the latest forecasts.